createdAt,value
2022-07-29T00:00:58.647Z,19.93
2022-07-29T00:03:25.216Z,19.93
2022-07-29T00:05:53.940Z,19.91
2022-07-29T00:08:20.921Z,19.86
2022-07-29T00:10:47.572Z,19.85
2022-07-29T00:13:14.179Z,19.84
2022-07-29T00:15:40.723Z,19.87
2022-07-29T00:18:07.266Z,19.81
2022-07-29T00:20:33.783Z,19.74
2022-07-29T00:23:00.326Z,19.74
2022-07-29T00:25:27.008Z,19.76
2022-07-29T00:27:53.492Z,19.73
2022-07-29T00:30:20.514Z,19.73
2022-07-29T00:32:47.048Z,19.71
2022-07-29T00:35:32.530Z,19.68
2022-07-29T00:38:00.117Z,19.64
2022-07-29T00:40:28.610Z,19.66
2022-07-29T00:42:55.516Z,19.63
2022-07-29T00:45:23.105Z,19.64
2022-07-29T00:47:49.866Z,19.63
2022-07-29T00:50:16.562Z,19.55
2022-07-29T00:52:43.363Z,19.55
2022-07-29T00:55:15.580Z,19.51
2022-07-29T00:57:43.539Z,19.49
2022-07-29T01:00:13.912Z,19.48
2022-07-29T01:02:40.452Z,19.45
2022-07-29T01:05:07.436Z,19.45
2022-07-29T01:07:37.784Z,19.47
2022-07-29T01:10:07.255Z,19.45
2022-07-29T01:12:35.454Z,19.45
2022-07-29T01:15:05.197Z,19.40
2022-07-29T01:17:53.236Z,19.36
2022-07-29T01:20:31.937Z,19.36
2022-07-29T01:23:08.028Z,19.34
2022-07-29T01:25:59.250Z,19.33
2022-07-29T01:29:13.635Z,19.33
2022-07-29T01:31:59.026Z,19.31
2022-07-29T01:34:32.410Z,19.30
2022-07-29T01:37:07.743Z,19.27
2022-07-29T01:39:37.617Z,19.25
2022-07-29T01:42:11.070Z,19.24
2022-07-29T01:45:10.580Z,19.21
2022-07-29T01:47:57.384Z,19.24
2022-07-29T01:50:32.579Z,19.23
2022-07-29T01:53:05.538Z,19.20
2022-07-29T01:55:39.617Z,19.24
2022-07-29T01:58:07.944Z,19.27
2022-07-29T02:00:35.612Z,19.25
2022-07-29T02:03:07.269Z,19.22
2022-07-29T02:05:36.348Z,19.23
2022-07-29T02:08:05.237Z,19.21
2022-07-29T02:10:34.541Z,19.25
2022-07-29T02:13:03.214Z,19.21
2022-07-29T02:15:32.918Z,19.16
2022-07-29T02:18:06.182Z,19.08
2022-07-29T02:20:33.761Z,19.06
2022-07-29T02:23:01.831Z,19.10
2022-07-29T02:25:37.669Z,19.04
2022-07-29T02:28:07.124Z,19.02
2022-07-29T02:30:34.845Z,19.01
2022-07-29T02:33:02.787Z,19.03
2022-07-29T02:35:34.897Z,19.03
2022-07-29T02:38:22.806Z,19.05
2022-07-29T02:40:52.038Z,19.11
2022-07-29T02:43:20.130Z,19.22
2022-07-29T02:45:51.992Z,19.17
2022-07-29T02:48:21.167Z,19.12
2022-07-29T02:50:55.659Z,19.11
2022-07-29T02:53:26.044Z,19.09
2022-07-29T02:56:00.193Z,19.05
2022-07-29T02:58:38.975Z,19.00
2022-07-29T03:01:21.675Z,18.96
2022-07-29T03:03:50.407Z,18.85
2022-07-29T03:06:30.911Z,18.75
2022-07-29T03:09:10.444Z,18.58
2022-07-29T03:11:46.120Z,18.48
2022-07-29T03:14:18.698Z,18.42
2022-07-29T03:16:46.424Z,18.37
2022-07-29T03:19:13.323Z,18.33
2022-07-29T03:21:40.086Z,18.28
2022-07-29T03:24:10.550Z,18.24
2022-07-29T03:26:37.875Z,18.20
2022-07-29T03:29:05.134Z,18.11
2022-07-29T03:31:32.342Z,18.06
2022-07-29T03:34:00.234Z,18.08
2022-07-29T03:36:27.064Z,18.07
2022-07-29T03:38:54.552Z,18.05
2022-07-29T03:41:23.744Z,18.05
2022-07-29T03:43:52.752Z,17.95
2022-07-29T03:46:23.579Z,17.91
2022-07-29T03:48:54.114Z,17.94
2022-07-29T03:51:33.336Z,18.00
2022-07-29T03:54:07.675Z,18.07
2022-07-29T03:56:39.686Z,18.08
2022-07-29T03:59:07.711Z,18.01
2022-07-29T04:01:35.439Z,17.98
2022-07-29T04:04:04.166Z,17.89
2022-07-29T04:06:38.666Z,17.83
2022-07-29T04:09:05.151Z,17.89
2022-07-29T04:11:56.974Z,17.79
2022-07-29T04:14:25.122Z,17.53
2022-07-29T04:16:51.613Z,17.41
2022-07-29T04:19:18.422Z,17.33
2022-07-29T04:21:46.097Z,17.27
2022-07-29T04:24:12.899Z,17.28
2022-07-29T04:26:39.756Z,17.15
2022-07-29T04:29:06.196Z,16.99
2022-07-29T04:31:32.852Z,16.96
2022-07-29T04:33:59.388Z,16.95
2022-07-29T04:36:29.092Z,16.89
2022-07-29T04:38:56.515Z,16.82
2022-07-29T04:41:23.492Z,16.73
2022-07-29T04:44:01.769Z,16.60
2022-07-29T04:46:28.867Z,16.53
2022-07-29T04:48:55.507Z,16.46
2022-07-29T04:51:22.070Z,16.47
2022-07-29T04:53:48.809Z,16.48
2022-07-29T04:56:15.338Z,16.50
2022-07-29T04:58:41.963Z,16.55
2022-07-29T05:01:08.457Z,16.58
2022-07-29T05:03:34.931Z,16.58
2022-07-29T05:06:01.357Z,16.57
2022-07-29T05:08:27.812Z,16.58
2022-07-29T05:10:54.464Z,16.53
2022-07-29T05:13:20.993Z,16.53
2022-07-29T05:15:47.478Z,16.45
2022-07-29T05:18:14.360Z,16.39
2022-07-29T05:20:40.988Z,16.40
2022-07-29T05:23:07.677Z,16.46
2022-07-29T05:25:44.436Z,16.47
2022-07-29T05:28:12.363Z,16.51
2022-07-29T05:30:39.089Z,16.54
2022-07-29T05:33:05.869Z,16.61
2022-07-29T05:35:32.363Z,16.55
2022-07-29T05:37:58.835Z,16.44
2022-07-29T05:40:25.254Z,16.36
2022-07-29T05:42:51.718Z,16.38
2022-07-29T05:45:18.230Z,16.42
2022-07-29T05:47:44.729Z,16.51
2022-07-29T05:50:11.481Z,16.57
2022-07-29T05:52:38.027Z,16.59
2022-07-29T05:55:06.444Z,16.50
2022-07-29T05:57:33.201Z,16.47
2022-07-29T06:00:00.296Z,16.47
2022-07-29T06:02:26.857Z,16.50
2022-07-29T06:04:53.536Z,16.54
2022-07-29T06:07:20.338Z,16.58
2022-07-29T06:09:46.783Z,16.68
2022-07-29T06:12:13.494Z,16.74
2022-07-29T06:14:39.977Z,16.78
2022-07-29T06:17:06.799Z,16.84
2022-07-29T06:19:35.832Z,16.82
2022-07-29T06:22:02.414Z,16.86
2022-07-29T06:24:29.112Z,16.91
2022-07-29T06:26:55.903Z,16.90
2022-07-29T06:29:22.488Z,16.94
2022-07-29T06:31:48.988Z,17.00
2022-07-29T06:34:16.932Z,17.09
2022-07-29T06:36:44.366Z,17.18
2022-07-29T06:39:12.524Z,17.26
2022-07-29T06:41:38.987Z,17.31
2022-07-29T06:44:05.891Z,17.26
2022-07-29T06:46:33.143Z,17.26
2022-07-29T06:49:02.103Z,17.29
2022-07-29T06:51:28.626Z,17.39
2022-07-29T06:54:00.422Z,17.50
2022-07-29T06:56:38.182Z,17.57
2022-07-29T06:59:07.707Z,17.65
2022-07-29T07:01:34.237Z,17.72
2022-07-29T07:04:00.813Z,17.78
2022-07-29T07:06:27.572Z,17.81
2022-07-29T07:08:54.040Z,17.83
2022-07-29T07:11:20.574Z,17.85
2022-07-29T07:13:47.064Z,17.93
2022-07-29T07:16:13.670Z,17.90
2022-07-29T07:18:40.149Z,17.92
2022-07-29T07:21:06.719Z,17.95
2022-07-29T07:23:33.264Z,17.99
2022-07-29T07:25:59.738Z,18.01
2022-07-29T07:28:26.161Z,18.05
2022-07-29T07:30:53.109Z,17.98
2022-07-29T07:33:20.235Z,17.96
2022-07-29T07:35:47.105Z,17.92
2022-07-29T07:38:13.641Z,17.88
2022-07-29T07:40:40.779Z,17.88
2022-07-29T07:43:07.246Z,17.91
2022-07-29T07:45:34.129Z,17.92
2022-07-29T07:48:00.947Z,17.86
2022-07-29T07:50:27.571Z,17.90
2022-07-29T07:52:59.082Z,17.93
2022-07-29T07:55:27.082Z,17.99
2022-07-29T07:57:54.817Z,17.93
2022-07-29T08:00:23.710Z,17.90
2022-07-29T08:02:51.426Z,17.86
2022-07-29T08:05:18.898Z,17.69
2022-07-29T08:07:47.290Z,17.66
2022-07-29T08:10:15.403Z,17.77
2022-07-29T08:12:42.935Z,17.76
2022-07-29T08:15:09.984Z,17.62
2022-07-29T08:17:36.623Z,17.50
2022-07-29T08:20:03.983Z,17.47
2022-07-29T08:22:30.897Z,17.49
2022-07-29T08:24:57.410Z,17.47
2022-07-29T08:27:42.883Z,17.40
2022-07-29T08:30:11.429Z,17.38
2022-07-29T08:32:53.230Z,17.36
2022-07-29T08:35:21.695Z,17.35
2022-07-29T08:37:48.361Z,17.41
2022-07-29T08:40:15.357Z,17.45
2022-07-29T08:42:41.804Z,17.55
2022-07-29T08:45:09.015Z,17.74
2022-07-29T08:47:40.330Z,17.86
2022-07-29T08:50:08.498Z,18.01
2022-07-29T08:52:38.232Z,18.17
2022-07-29T08:55:07.407Z,18.25
2022-07-29T08:57:35.089Z,18.31
2022-07-29T09:00:11.383Z,18.35
2022-07-29T09:02:42.629Z,18.32
2022-07-29T09:05:09.515Z,18.38
2022-07-29T09:07:36.515Z,18.47
2022-07-29T09:10:05.636Z,18.46
2022-07-29T09:12:37.557Z,18.44
2022-07-29T09:15:04.579Z,18.44
2022-07-29T09:17:44.583Z,18.38
2022-07-29T09:20:20.609Z,18.24
2022-07-29T09:22:50.513Z,18.15
2022-07-29T09:25:34.506Z,18.15
2022-07-29T09:28:12.661Z,18.14
2022-07-29T09:30:53.480Z,18.15
2022-07-29T09:33:20.523Z,18.18
2022-07-29T09:35:56.397Z,18.13
2022-07-29T09:38:23.635Z,18.10
2022-07-29T09:41:05.453Z,17.99
2022-07-29T09:43:32.899Z,18.02
2022-07-29T09:46:12.583Z,18.07
2022-07-29T09:48:39.212Z,18.11
2022-07-29T09:51:06.816Z,18.10
2022-07-29T09:53:38.764Z,18.13
2022-07-29T09:56:06.027Z,18.12
2022-07-29T09:58:35.842Z,18.17
2022-07-29T10:01:02.648Z,18.21
2022-07-29T10:03:29.210Z,18.28
2022-07-29T10:06:14.467Z,18.22
2022-07-29T10:08:42.647Z,18.30
2022-07-29T10:11:12.134Z,18.30
2022-07-29T10:13:39.504Z,18.33
2022-07-29T10:16:07.234Z,18.41
2022-07-29T10:18:34.669Z,18.43
2022-07-29T10:21:02.087Z,18.59
2022-07-29T10:23:30.252Z,18.65
2022-07-29T10:26:13.964Z,18.85
2022-07-29T10:28:40.455Z,18.95
2022-07-29T10:31:14.660Z,19.19
2022-07-29T10:33:47.583Z,19.50
2022-07-29T10:36:35.532Z,19.71
2022-07-29T10:39:41.916Z,19.92
2022-07-29T10:42:20.350Z,20.08
2022-07-29T10:44:57.146Z,20.13
2022-07-29T10:47:28.197Z,20.21
2022-07-29T10:50:05.458Z,20.42
2022-07-29T10:52:50.169Z,20.75
2022-07-29T10:58:26.667Z,20.79
2022-07-29T11:00:55.135Z,20.84
2022-07-29T11:03:52.437Z,20.82
2022-07-29T11:06:26.364Z,20.89
2022-07-29T11:09:20.485Z,20.82
2022-07-29T11:12:02.076Z,20.91
2022-07-29T11:15:02.387Z,21.13
2022-07-29T11:17:37.634Z,21.16
2022-07-29T11:20:36.534Z,21.24
2022-07-29T11:23:34.050Z,21.27
2022-07-29T11:26:23.007Z,21.33
2022-07-29T11:29:18.997Z,21.51
2022-07-29T11:31:55.319Z,21.64
2022-07-29T11:34:28.006Z,21.67
2022-07-29T11:37:08.345Z,21.66
2022-07-29T11:39:37.734Z,21.67
2022-07-29T11:42:32.606Z,21.79
2022-07-29T11:45:06.639Z,21.91
2022-07-29T11:47:48.551Z,21.98
2022-07-29T11:50:28.939Z,22.02
2022-07-29T11:52:55.996Z,22.14
2022-07-29T11:55:25.176Z,22.29
2022-07-29T11:58:04.050Z,22.11
2022-07-29T12:00:36.635Z,22.09
2022-07-29T12:03:05.738Z,22.22
2022-07-29T12:05:36.455Z,22.24
2022-07-29T12:08:20.506Z,22.13
2022-07-29T12:10:49.358Z,22.08
2022-07-29T12:13:18.242Z,21.96
2022-07-29T12:15:59.707Z,22.00
2022-07-29T12:18:27.733Z,21.98
2022-07-29T12:21:04.908Z,21.98
2022-07-29T12:23:35.558Z,22.04
2022-07-29T12:26:07.423Z,22.02
2022-07-29T12:28:40.503Z,21.98
2022-07-29T12:31:15.084Z,22.03
2022-07-29T12:34:02.457Z,22.04
2022-07-29T12:36:28.988Z,22.02
2022-07-29T12:38:55.507Z,22.03
2022-07-29T12:41:22.787Z,22.08
2022-07-29T12:43:55.530Z,22.06
2022-07-29T12:46:22.333Z,22.20
2022-07-29T12:48:55.596Z,22.22
2022-07-29T12:51:34.946Z,22.15
2022-07-29T12:54:16.211Z,22.23
2022-07-29T12:56:45.650Z,22.19
2022-07-29T12:59:17.537Z,22.27
2022-07-29T13:01:44.867Z,22.24
2022-07-29T13:04:12.059Z,22.38
2022-07-29T13:06:39.241Z,22.36
2022-07-29T13:09:23.745Z,22.36
2022-07-29T13:11:54.275Z,22.30
2022-07-29T13:14:38.304Z,22.16
2022-07-29T13:17:04.962Z,22.14
2022-07-29T13:19:41.456Z,22.13
2022-07-29T13:22:12.529Z,22.21
2022-07-29T13:25:04.615Z,22.35
2022-07-29T13:27:34.017Z,22.57
2022-07-29T13:30:02.307Z,22.89
2022-07-29T13:32:30.875Z,22.97
2022-07-29T13:34:58.709Z,23.27
2022-07-29T13:37:26.803Z,23.51
2022-07-29T13:39:54.596Z,23.67
2022-07-29T13:42:21.720Z,23.81
2022-07-29T13:44:49.558Z,24.04
2022-07-29T13:47:17.178Z,23.67
2022-07-29T13:49:43.662Z,23.76
2022-07-29T13:52:10.109Z,24.14
2022-07-29T13:54:42.299Z,24.39
2022-07-29T13:57:09.623Z,24.38
2022-07-29T13:59:36.111Z,24.73
2022-07-29T14:02:03.184Z,24.91
2022-07-29T14:04:29.732Z,24.54
2022-07-29T14:06:56.269Z,24.57
2022-07-29T14:09:22.783Z,24.23
2022-07-29T14:11:51.111Z,24.30
2022-07-29T14:14:18.217Z,24.65
2022-07-29T14:16:47.761Z,24.83
2022-07-29T14:19:18.406Z,24.92
2022-07-29T14:21:45.680Z,24.58
2022-07-29T14:24:18.028Z,24.50
2022-07-29T14:26:48.516Z,24.48
2022-07-29T14:29:15.108Z,24.56
2022-07-29T14:31:41.630Z,24.59
2022-07-29T14:34:08.075Z,24.84
2022-07-29T14:36:34.536Z,24.79
2022-07-29T14:39:00.974Z,24.75
2022-07-29T14:41:29.447Z,24.57
2022-07-29T14:43:56.081Z,24.56
2022-07-29T14:46:22.945Z,24.89
2022-07-29T14:48:49.635Z,24.97
2022-07-29T14:51:16.133Z,24.80
2022-07-29T14:53:42.555Z,24.77
2022-07-29T14:56:34.314Z,24.77
2022-07-29T14:58:58.198Z,24.96
2022-07-29T15:01:25.650Z,24.88
2022-07-29T15:03:56.853Z,24.69
2022-07-29T15:06:26.702Z,24.83
2022-07-29T15:08:53.253Z,24.87
2022-07-29T15:11:19.796Z,25.29
2022-07-29T15:13:46.466Z,25.54
2022-07-29T15:16:12.982Z,25.50
2022-07-29T15:18:39.803Z,25.54
2022-07-29T15:21:07.885Z,25.30
2022-07-29T15:23:37.149Z,25.21
2022-07-29T15:26:04.626Z,25.31
2022-07-29T15:28:31.138Z,25.04
2022-07-29T15:30:57.569Z,24.81
2022-07-29T15:33:24.498Z,24.67
2022-07-29T15:35:50.932Z,24.55
2022-07-29T15:38:18.150Z,24.33
2022-07-29T15:40:45.342Z,24.22
2022-07-29T15:43:12.505Z,24.07
2022-07-29T15:46:03.656Z,23.94
2022-07-29T15:48:30.382Z,23.89
2022-07-29T15:50:56.907Z,23.79
2022-07-29T15:53:23.422Z,23.78
2022-07-29T15:55:50.065Z,23.79
2022-07-29T15:58:16.741Z,23.78
2022-07-29T16:00:43.247Z,23.75
2022-07-29T16:03:09.813Z,23.69
2022-07-29T16:05:36.390Z,23.72
2022-07-29T16:08:04.505Z,23.75
2022-07-29T16:10:30.988Z,23.76
2022-07-29T16:12:57.418Z,23.76
2022-07-29T16:15:24.209Z,23.76
2022-07-29T16:17:50.669Z,23.82
2022-07-29T16:20:17.633Z,23.86
2022-07-29T16:22:44.155Z,23.84
2022-07-29T16:25:10.628Z,23.88
2022-07-29T16:27:37.857Z,23.92
2022-07-29T16:30:06.287Z,24.00
2022-07-29T16:32:32.812Z,24.02
2022-07-29T16:35:01.984Z,24.00
2022-07-29T16:37:33.492Z,23.97
2022-07-29T16:40:00.025Z,24.00
2022-07-29T16:42:45.482Z,24.00
2022-07-29T16:45:13.516Z,23.94
2022-07-29T16:47:40.614Z,23.92
2022-07-29T16:50:07.798Z,23.94
2022-07-29T16:52:34.281Z,23.94
2022-07-29T16:55:00.775Z,23.91
2022-07-29T16:57:27.305Z,23.95
2022-07-29T16:59:53.844Z,23.98
2022-07-29T17:02:20.399Z,24.06
2022-07-29T17:04:47.000Z,24.04
2022-07-29T17:07:14.106Z,24.08
2022-07-29T17:09:40.660Z,23.99
2022-07-29T17:12:07.356Z,23.91
2022-07-29T17:14:33.895Z,23.90
2022-07-29T17:17:02.582Z,23.93
2022-07-29T17:19:31.959Z,23.96
2022-07-29T17:22:06.366Z,23.87
2022-07-29T17:24:36.042Z,23.75
2022-07-29T17:27:02.587Z,23.71
2022-07-29T17:29:29.015Z,23.64
2022-07-29T17:31:55.482Z,23.57
2022-07-29T17:34:21.932Z,23.60
2022-07-29T17:36:48.446Z,23.64
2022-07-29T17:39:15.019Z,23.66
2022-07-29T17:41:42.072Z,23.63
2022-07-29T17:44:09.389Z,23.64
2022-07-29T17:46:36.641Z,23.63
2022-07-29T17:49:04.446Z,23.60
2022-07-29T17:51:30.926Z,23.61
2022-07-29T17:53:58.631Z,23.60
2022-07-29T17:56:25.750Z,23.61
2022-07-29T17:58:52.985Z,23.56
2022-07-29T18:01:19.641Z,23.57
2022-07-29T18:03:46.921Z,23.52
2022-07-29T18:06:13.442Z,23.46
2022-07-29T18:08:40.615Z,23.37
2022-07-29T18:11:07.118Z,23.39
2022-07-29T18:13:33.643Z,23.42
2022-07-29T18:16:00.887Z,23.42
2022-07-29T18:18:28.074Z,23.42
2022-07-29T18:20:54.715Z,23.43
2022-07-29T18:23:21.255Z,23.39
2022-07-29T18:25:48.172Z,23.36
2022-07-29T18:28:15.013Z,23.31
2022-07-29T18:30:41.681Z,23.26
2022-07-29T18:33:22.887Z,23.30
2022-07-29T18:35:51.542Z,23.31
2022-07-29T18:38:18.689Z,23.31
2022-07-29T18:40:46.170Z,23.24
2022-07-29T18:43:13.705Z,23.11
2022-07-29T18:45:40.507Z,23.15
2022-07-29T18:48:12.709Z,23.16
2022-07-29T18:50:40.690Z,23.16
2022-07-29T18:53:07.250Z,23.15
2022-07-29T18:55:34.166Z,23.11
2022-07-29T18:58:00.573Z,23.07
2022-07-29T19:00:27.636Z,23.00
2022-07-29T19:02:54.305Z,22.89
2022-07-29T19:05:21.218Z,22.83
2022-07-29T19:07:47.668Z,22.84
2022-07-29T19:10:14.365Z,22.77
2022-07-29T19:12:41.206Z,22.78
2022-07-29T19:15:08.440Z,22.70
2022-07-29T19:17:34.911Z,22.69
2022-07-29T19:20:01.867Z,22.70
2022-07-29T19:22:28.603Z,22.63
2022-07-29T19:24:55.086Z,22.52
2022-07-29T19:27:21.655Z,22.47
2022-07-29T19:29:48.184Z,22.39
2022-07-29T19:32:24.810Z,22.32
2022-07-29T19:35:11.328Z,22.24
2022-07-29T19:37:37.770Z,22.18
2022-07-29T19:40:05.938Z,22.14
2022-07-29T19:42:32.430Z,22.12
2022-07-29T19:44:58.932Z,22.02
2022-07-29T19:47:25.630Z,21.93
2022-07-29T19:49:52.142Z,21.87
2022-07-29T19:52:18.589Z,21.78
2022-07-29T19:54:45.161Z,21.71
2022-07-29T19:57:11.593Z,21.67
2022-07-29T19:59:38.633Z,21.65
2022-07-29T20:02:05.452Z,21.61
2022-07-29T20:04:32.348Z,21.58
2022-07-29T20:07:01.701Z,21.51
2022-07-29T20:09:28.971Z,21.48
2022-07-29T20:11:55.534Z,21.43
2022-07-29T20:14:22.812Z,21.41
2022-07-29T20:16:50.593Z,21.35
2022-07-29T20:19:17.423Z,21.26
2022-07-29T20:21:43.965Z,21.20
2022-07-29T20:24:10.639Z,21.16
2022-07-29T20:26:37.639Z,21.11
2022-07-29T20:29:05.262Z,21.06
2022-07-29T20:31:32.410Z,20.98
2022-07-29T20:33:59.228Z,20.96
2022-07-29T20:36:25.869Z,20.96
2022-07-29T20:38:52.348Z,20.94
2022-07-29T20:41:18.825Z,20.90
2022-07-29T20:43:45.536Z,20.83
2022-07-29T20:46:12.456Z,20.81
2022-07-29T20:48:40.410Z,20.80
2022-07-29T20:51:07.360Z,20.73
2022-07-29T20:53:34.040Z,20.67
2022-07-29T20:56:00.532Z,20.64
2022-07-29T20:58:26.972Z,20.62
2022-07-29T21:00:53.532Z,20.61
2022-07-29T21:03:20.224Z,20.57
2022-07-29T21:05:46.710Z,20.55
2022-07-29T21:08:13.524Z,20.51
2022-07-29T21:10:40.010Z,20.39
2022-07-29T21:13:06.473Z,20.36
2022-07-29T21:15:33.280Z,20.33
2022-07-29T21:18:02.250Z,20.32
2022-07-29T21:20:29.753Z,20.25
2022-07-29T21:22:56.360Z,20.13
2022-07-29T21:25:23.539Z,20.08
2022-07-29T21:28:09.396Z,20.09
2022-07-29T21:30:36.600Z,19.99
2022-07-29T21:33:03.834Z,19.97
2022-07-29T21:36:01.541Z,19.98
2022-07-29T21:38:18.381Z,20.03
2022-07-29T21:40:50.114Z,20.04
2022-07-29T21:43:17.827Z,20.06
2022-07-29T21:45:47.645Z,20.04
2022-07-29T21:48:14.229Z,20.01
2022-07-29T21:50:41.046Z,20.00
2022-07-29T21:53:07.802Z,20.02
2022-07-29T21:55:37.912Z,20.02
2022-07-29T21:58:04.447Z,20.05
2022-07-29T22:00:33.762Z,20.08
2022-07-29T22:03:04.641Z,20.21
2022-07-29T22:05:31.985Z,20.23
2022-07-29T22:07:58.813Z,20.26
2022-07-29T22:10:26.761Z,20.30
2022-07-29T22:12:54.798Z,20.41
2022-07-29T22:15:21.837Z,20.44
2022-07-29T22:17:48.449Z,20.42
2022-07-29T22:20:14.916Z,20.47
2022-07-29T22:22:42.207Z,20.50
2022-07-29T22:25:10.575Z,20.50
2022-07-29T22:27:37.299Z,20.49
2022-07-29T22:30:07.185Z,20.49
2022-07-29T22:32:34.268Z,20.47
2022-07-29T22:35:00.953Z,20.42
2022-07-29T22:37:27.434Z,20.38
2022-07-29T22:39:54.003Z,20.36
2022-07-29T22:42:21.018Z,20.37
2022-07-29T22:44:47.480Z,20.36
2022-07-29T22:47:14.167Z,20.35
2022-07-29T22:49:40.659Z,20.33
2022-07-29T22:52:09.060Z,20.32
2022-07-29T22:54:35.525Z,20.27
2022-07-29T22:57:02.973Z,20.23
2022-07-29T22:59:29.560Z,20.26
2022-07-29T23:01:56.167Z,20.28
2022-07-29T23:04:23.707Z,20.25
2022-07-29T23:06:51.214Z,20.18
2022-07-29T23:09:17.873Z,20.14
2022-07-29T23:11:44.519Z,20.09
2022-07-29T23:14:10.967Z,20.07
2022-07-29T23:16:37.504Z,20.09
2022-07-29T23:19:04.022Z,19.99
2022-07-29T23:21:30.539Z,19.93
2022-07-29T23:23:57.016Z,19.86
2022-07-29T23:26:23.493Z,19.84
2022-07-29T23:28:50.125Z,19.84
2022-07-29T23:31:17.342Z,19.80
2022-07-29T23:33:43.832Z,19.80
2022-07-29T23:36:10.510Z,19.75
2022-07-29T23:38:44.335Z,19.70
2022-07-29T23:41:10.777Z,19.67
2022-07-29T23:43:37.891Z,19.62
2022-07-29T23:46:04.705Z,19.60
2022-07-29T23:48:32.967Z,19.57
2022-07-29T23:51:01.003Z,19.53
2022-07-29T23:53:28.646Z,19.50
2022-07-29T23:55:56.085Z,19.49
2022-07-29T23:58:23.173Z,19.48
